Time;durP1;ratioP1;P1;durP2;ratioP2;P2;SDS_P1;SDS_P2;PMS_P1;PMS_P2;Temp;Humidity;BMP_temperature;BMP_pressure;BME280_temperature;BME280_humidity;BME280_pressure;Samples;Min_cycle;Max_cycle;Signal;HPM_P1;HPM_P2
2022/05/27 00:01:21;;;;;;;13.80;11.10;;;;;;;17.63;92.91;97355.53;5005598;28;20064;-61
2022/05/27 00:03:49;;;;;;;12.90;10.38;;;;;;;17.63;92.50;97361.13;5005871;28;20073;-61
2022/05/27 00:06:16;;;;;;;16.25;10.38;;;;;;;17.69;92.62;97365.09;5007267;28;20054;-65
2022/05/27 00:08:43;;;;;;;14.75;10.35;;;;;;;17.71;92.17;97363.50;5006424;28;20120;-61
2022/05/27 00:11:12;;;;;;;13.77;10.80;;;;;;;17.72;92.55;97358.69;5022404;28;20588;-62
2022/05/27 00:13:39;;;;;;;16.77;10.95;;;;;;;17.77;91.74;97356.25;5007204;28;20061;-60
2022/05/27 00:16:06;;;;;;;15.90;10.63;;;;;;;17.68;92.26;97358.72;5007339;28;20289;-60
2022/05/27 00:18:33;;;;;;;13.35;10.48;;;;;;;17.44;92.28;97330.78;5007072;28;20527;-60
2022/05/27 00:21:02;;;;;;;17.70;10.85;;;;;;;17.21;93.19;97305.31;5007155;28;20058;-61
2022/05/27 00:23:28;;;;;;;14.23;11.07;;;;;;;17.32;94.26;97351.66;5005398;28;20473;-61
2022/05/27 00:25:55;;;;;;;12.75;9.55;;;;;;;17.36;94.15;97351.63;5021960;28;20069;-62
2022/05/27 00:28:22;;;;;;;16.80;10.27;;;;;;;17.34;94.23;97348.47;5005636;28;20061;-62
2022/05/27 00:30:49;;;;;;;15.85;10.60;;;;;;;16.97;97.58;97345.41;5007200;28;20061;-61
2022/05/27 00:33:16;;;;;;;14.75;11.00;;;;;;;17.15;96.12;97351.75;5006840;28;20468;-62
2022/05/27 00:35:42;;;;;;;14.70;10.57;;;;;;;17.13;95.45;97351.34;5006195;28;20053;-63
2022/05/27 00:38:09;;;;;;;15.65;11.55;;;;;;;17.03;95.00;97327.78;5006164;28;20072;-62
2022/05/27 00:40:49;;;;;;;15.73;10.88;;;;;;;17.04;94.65;97331.38;5004244;28;20556;-62
2022/05/27 00:43:16;;;;;;;18.90;11.40;;;;;;;17.12;94.68;97347.72;5006579;28;20049;-63
2022/05/27 00:45:45;;;;;;;16.75;12.27;;;;;;;17.10;94.45;97350.16;5021387;28;20061;-63
2022/05/27 00:48:17;;;;;;;18.55;13.00;;;;;;;17.00;94.59;97338.97;5021692;28;20139;-65
2022/05/27 00:50:47;;;;;;;16.83;11.82;;;;;;;16.94;95.65;97357.41;5006621;28;20511;-65
2022/05/27 00:53:19;;;;;;;20.15;13.93;;;;;;;16.90;95.85;97356.63;5006583;28;20058;-62
2022/05/27 00:55:52;;;;;;;19.10;13.45;;;;;;;16.88;96.59;97356.22;5006735;28;20057;-63
2022/05/27 00:58:40;;;;;;;20.02;13.10;;;;;;;16.36;97.13;97288.75;5015582;28;20058;-63
2022/05/27 01:01:07;;;;;;;19.70;12.85;;;;;;;16.66;97.58;97323.91;4985799;28;20057;-63
2022/05/27 01:03:35;;;;;;;20.10;12.25;;;;;;;16.57;97.09;97322.31;4986827;28;20524;-62
2022/05/27 01:06:02;;;;;;;14.27;11.70;;;;;;;16.52;97.03;97305.94;4986756;28;20065;-62
2022/05/27 01:08:30;;;;;;;15.10;11.02;;;;;;;16.63;97.13;97337.50;4986645;28;20525;-63
2022/05/27 01:11:12;;;;;;;17.17;10.25;;;;;;;16.75;95.94;97341.06;4985404;28;20050;-63
2022/05/27 01:13:50;;;;;;;15.15;9.88;;;;;;;16.76;96.03;97339.84;4986224;28;20062;-62
2022/05/27 01:16:27;;;;;;;13.10;10.18;;;;;;;16.58;96.71;97325.94;4984765;28;20065;-62
2022/05/27 01:22:48;;;;;;;19.17;10.23;;;;;;;16.72;96.30;97344.66;4986411;28;20050;-63
2022/05/27 01:25:40;;;;;;;16.85;9.10;;;;;;;16.55;97.18;97349.88;4979422;28;20054;-62
2022/05/27 01:28:13;;;;;;;13.65;9.63;;;;;;;16.60;96.99;97355.06;4986045;28;20062;-63
2022/05/27 01:30:51;;;;;;;13.68;9.88;;;;;;;16.06;95.73;97268.84;4986675;28;20058;-64
2022/05/27 01:33:40;;;;;;;16.63;11.68;;;;;;;16.55;96.25;97341.50;4984795;28;20104;-62
2022/05/27 01:36:16;;;;;;;16.00;9.50;;;;;;;16.49;97.37;97336.72;4985663;28;20404;-62
2022/05/27 01:39:04;;;;;;;15.68;9.60;;;;;;;16.50;97.43;97341.13;4984463;28;20058;-62
2022/05/27 01:42:05;;;;;;;15.38;9.48;;;;;;;16.38;97.11;97336.69;4985940;28;20494;-62
2022/05/27 01:45:12;;;;;;;15.15;9.65;;;;;;;16.32;97.70;97332.72;4984530;28;20077;-62
2022/05/27 01:47:51;;;;;;;15.50;9.60;;;;;;;16.25;97.99;97332.72;4984489;28;20066;-63
2022/05/27 01:50:35;;;;;;;14.85;9.57;;;;;;;16.38;97.50;97341.47;4985844;28;20062;-62
2022/05/27 01:53:06;;;;;;;14.55;10.10;;;;;;;16.22;98.15;97316.75;4986210;28;20050;-64
2022/05/27 01:55:33;;;;;;;13.10;9.68;;;;;;;16.36;97.82;97333.50;4986302;28;20065;-62
2022/05/27 01:58:38;;;;;;;10.38;8.73;;;;;;;16.37;97.71;97335.13;4985642;28;20057;-63
2022/05/27 02:01:10;;;;;;;14.60;9.18;;;;;;;15.83;96.34;97256.47;4978180;28;20505;-62
2022/05/27 02:04:01;;;;;;;14.13;10.00;;;;;;;16.35;96.92;97345.88;4985363;28;20050;-65
2022/05/27 02:06:35;;;;;;;15.18;9.40;;;;;;;15.15;98.81;97179.44;4984931;28;20054;-61
2022/05/27 02:09:16;;;;;;;14.70;10.15;;;;;;;16.13;98.52;97324.75;4985289;28;20060;-62
2022/05/27 02:11:45;;;;;;;14.93;8.68;;;;;;;15.90;98.18;97276.03;4984182;28;20058;-66
2022/05/27 02:14:31;;;;;;;13.20;9.13;;;;;;;16.09;98.18;97307.16;4983851;28;20054;-61
2022/05/27 02:17:03;;;;;;;13.20;9.05;;;;;;;15.62;97.89;97248.88;4984017;28;20062;-60
2022/05/27 02:19:39;;;;;;;12.05;8.18;;;;;;;16.09;98.85;97323.91;4983626;28;20522;-62
2022/05/27 02:22:12;;;;;;;11.65;9.02;;;;;;;16.10;99.01;97341.50;4984881;28;20058;-62
2022/05/27 02:24:43;;;;;;;14.75;9.50;;;;;;;15.81;98.56;97290.38;5010040;28;20061;-62
2022/05/27 02:27:21;;;;;;;18.55;9.85;;;;;;;16.05;99.51;97328.72;4983387;28;20069;-61
2022/05/27 02:29:53;;;;;;;19.58;10.30;;;;;;;15.55;100.00;97274.03;4986731;28;20463;-61
2022/05/27 02:32:26;;;;;;;16.05;10.25;;;;;;;15.87;100.00;97330.69;5004312;28;20057;-62
2022/05/27 02:35:09;;;;;;;17.53;11.97;;;;;;;15.89;100.00;97328.31;5004673;28;20050;-61
2022/05/27 02:37:42;;;;;;;20.90;13.65;;;;;;;15.92;99.81;97341.50;5004627;28;20064;-62
2022/05/27 02:40:21;;;;;;;22.88;13.45;;;;;;;15.25;99.27;97242.84;5004663;28;20072;-62
2022/05/27 02:42:59;;;;;;;16.92;12.50;;;;;;;15.85;99.33;97340.69;5004734;28;20053;-62
2022/05/27 02:45:37;;;;;;;14.63;9.98;;;;;;;15.40;100.00;97268.78;5004290;28;20272;-60
2022/05/27 02:48:31;;;;;;;12.80;10.05;;;;;;;15.75;99.86;97324.69;5004656;28;20054;-61
2022/05/27 02:51:04;;;;;;;;;;;;;;;15.82;98.05;97347.84;5019662;28;20053;-61
2022/05/27 02:53:57;;;;;;;18.65;12.35;;;;;;;15.39;98.61;97307.09;5002798;28;20576;-61
2022/05/27 02:56:47;;;;;;;20.05;12.55;;;;;;;14.68;99.24;97190.88;5004664;28;20058;-61
2022/05/27 02:59:17;;;;;;;22.17;12.43;;;;;;;15.36;100.00;97296.69;5019162;28;20056;-63
2022/05/27 03:01:46;;;;;;;18.25;12.75;;;;;;;15.64;99.90;97351.81;5019637;28;20069;-62
2022/05/27 03:04:18;;;;;;;20.83;11.75;;;;;;;15.42;100.00;97314.69;5019270;28;20054;-62
2022/05/27 03:07:08;;;;;;;16.75;11.93;;;;;;;15.49;100.00;97323.06;5003902;28;20504;-61
2022/05/27 03:10:14;;;;;;;21.25;11.82;;;;;;;15.69;100.00;97335.47;5003932;28;20073;-62
2022/05/27 03:13:00;;;;;;;19.75;11.48;;;;;;;15.64;100.00;97318.31;5003945;28;20061;-64
2022/05/27 03:15:40;;;;;;;16.00;9.65;;;;;;;15.97;99.72;97343.88;5018057;28;20463;-63
2022/05/27 03:18:24;;;;;;;13.38;9.23;;;;;;;16.04;99.53;97338.31;5001918;28;20124;-63
2022/05/27 03:21:26;;;;;;;14.40;9.63;;;;;;;16.11;99.70;97332.72;5003951;28;20069;-64
2022/05/27 03:24:11;;;;;;;12.30;8.35;;;;;;;16.24;98.05;97342.31;5018606;28;20093;-62
2022/05/27 03:26:49;;;;;;;16.73;7.78;;;;;;;16.24;97.56;97341.50;5002908;28;20069;-63
2022/05/27 03:29:31;;;;;;;8.30;6.90;;;;;;;16.29;97.69;97344.69;5016956;28;20053;-63
2022/05/27 03:32:25;;;;;;;11.20;6.82;;;;;;;16.35;96.07;97334.72;5021945;28;20061;-62
2022/05/27 03:34:57;;;;;;;11.77;6.70;;;;;;;16.38;95.71;97347.88;5022984;28;20060;-61
2022/05/27 03:37:30;;;;;;;10.35;7.28;;;;;;;16.17;95.50;97322.72;5023378;28;20053;-61
2022/05/27 03:40:11;;;;;;;9.17;7.50;;;;;;;16.41;95.30;97338.69;5022991;28;20064;-60
2022/05/27 03:42:40;;;;;;;8.43;7.10;;;;;;;16.55;93.99;97341.50;5023421;28;20300;-61
2022/05/27 03:45:11;;;;;;;9.70;6.82;;;;;;;14.59;94.12;97045.50;5038159;28;20548;-61
2022/05/27 03:47:39;;;;;;;11.55;8.65;;;;;;;16.12;93.47;97256.03;5021634;28;20053;-63
2022/05/27 03:50:09;;;;;;;15.27;7.10;;;;;;;16.55;93.02;97312.72;5037976;28;20152;-62
2022/05/27 03:52:41;;;;;;;12.52;7.97;;;;;;;16.88;93.20;97339.44;5023521;28;20080;-62
2022/05/27 03:55:11;;;;;;;10.37;7.90;;;;;;;16.68;92.54;97285.16;5038364;28;20050;-63
2022/05/27 03:57:38;;;;;;;10.77;7.43;;;;;;;17.14;90.85;97341.72;5038526;28;20060;-62
2022/05/27 04:00:06;;;;;;;13.00;7.30;;;;;;;17.26;90.62;97358.09;5021385;28;20053;-61
2022/05/27 04:02:33;;;;;;;8.52;6.82;;;;;;;17.37;89.78;97342.03;5023001;28;20054;-61
2022/05/27 04:04:59;;;;;;;7.30;6.55;;;;;;;17.45;90.28;97354.84;5038048;28;20061;-62
2022/05/27 04:07:27;;;;;;;8.77;5.55;;;;;;;16.98;89.82;97263.03;5022307;28;20081;-63
2022/05/27 04:09:54;;;;;;;13.15;6.03;;;;;;;17.65;88.67;97345.53;5021543;28;20065;-62
2022/05/27 04:12:21;;;;;;;10.07;7.03;;;;;;;17.32;88.84;97266.84;5023223;28;20053;-61
2022/05/27 04:14:51;;;;;;;9.45;6.88;;;;;;;17.80;87.67;97332.19;5023149;28;20053;-61
2022/05/27 04:17:30;;;;;;;11.80;7.53;;;;;;;18.09;87.06;97356.03;4983058;28;20136;-62
2022/05/27 04:20:09;;;;;;;8.82;7.40;;;;;;;17.76;87.42;97275.41;4983261;28;20559;-62
2022/05/27 04:22:36;;;;;;;8.38;6.63;;;;;;;18.42;86.48;97351.78;4998166;28;20062;-62
2022/05/27 04:25:10;;;;;;;10.07;7.10;;;;;;;18.41;85.62;97317.34;4983645;28;20054;-62
2022/05/27 04:27:37;;;;;;;14.48;7.30;;;;;;;18.85;84.68;97348.16;4998576;28;20120;-64
2022/05/27 04:30:06;;;;;;;12.43;6.68;;;;;;;18.75;82.18;97292.94;4983687;28;20054;-63
2022/05/27 04:32:33;;;;;;;14.52;7.20;;;;;;;19.22;81.08;97345.31;4998877;28;20059;-62
2022/05/27 04:35:00;;;;;;;10.52;7.07;;;;;;;19.14;80.32;97298.09;4982536;28;20054;-62
2022/05/27 04:37:27;;;;;;;12.73;7.35;;;;;;;19.64;79.52;97334.78;4987139;28;20058;-61
2022/05/27 04:39:53;;;;;;;13.43;9.57;;;;;;;19.77;79.58;97330.19;4986971;28;20064;-64
2022/05/27 04:42:20;;;;;;;12.07;8.70;;;;;;;19.54;80.14;97311.22;4985310;28;20441;-63
2022/05/27 04:44:47;;;;;;;14.05;9.63;;;;;;;19.99;79.04;97334.28;4986839;28;20066;-61
2022/05/27 04:47:14;;;;;;;13.10;9.85;;;;;;;20.19;77.70;97336.00;4986169;28;20058;-60
2022/05/27 04:49:51;;;;;;;13.65;9.30;;;;;;;19.64;77.33;97247.66;4986674;28;20050;-61
2022/05/27 04:52:19;;;;;;;9.57;7.22;;;;;;;20.49;75.37;97337.91;5001339;28;20050;-62
2022/05/27 04:54:45;;;;;;;15.55;9.10;;;;;;;20.69;75.72;97338.78;4987410;28;20073;-60
2022/05/27 04:57:34;;;;;;;9.55;7.10;;;;;;;20.96;74.81;97325.41;4987003;28;20073;-61
2022/05/27 05:00:06;;;;;;;6.70;5.80;;;;;;;20.95;72.02;97301.25;4985401;28;20065;-61
2022/05/27 05:02:33;;;;;;;7.60;5.60;;;;;;;21.52;71.53;97332.72;5001955;28;20058;-61
2022/05/27 05:05:06;;;;;;;12.63;6.05;;;;;;;21.51;68.72;97286.03;4986360;28;20579;-62
2022/05/27 05:07:34;;;;;;;12.32;5.80;;;;;;;22.11;66.91;97330.56;4986210;28;20054;-61
2022/05/27 05:10:02;;;;;;;11.68;5.63;;;;;;;22.35;65.62;97340.47;5001078;28;20062;-60
2022/05/27 05:12:29;;;;;;;10.70;6.15;;;;;;;22.07;65.21;97273.44;5001073;28;20061;-60
2022/05/27 05:14:55;;;;;;;8.27;6.30;;;;;;;22.61;64.55;97338.66;4987068;28;20054;-61
2022/05/27 05:17:23;;;;;;;9.80;6.03;;;;;;;22.56;63.78;97321.47;5024273;28;20088;-61
2022/05/27 05:19:53;;;;;;;14.63;6.28;;;;;;;22.87;63.30;97336.78;5025409;28;20499;-60
2022/05/27 05:22:21;;;;;;;9.43;6.05;;;;;;;22.73;63.03;97320.97;5025479;28;20073;-61
2022/05/27 05:24:48;;;;;;;8.43;6.55;;;;;;;22.88;64.18;97327.06;5025408;28;20057;-61
2022/05/27 05:27:15;;;;;;;14.70;8.18;;;;;;;22.71;65.09;97300.06;5040253;28;20072;-60
2022/05/27 05:29:42;;;;;;;10.77;7.00;;;;;;;22.68;65.44;97306.63;5025076;28;20057;-61
2022/05/27 05:32:08;;;;;;;12.65;7.57;;;;;;;22.83;64.98;97314.25;5023938;28;20050;-61
2022/05/27 05:34:35;;;;;;;12.32;7.82;;;;;;;22.51;65.54;97251.38;5023807;28;20445;-61
2022/05/27 05:37:02;;;;;;;7.75;6.88;;;;;;;23.01;64.10;97297.63;5025537;28;20052;-60
2022/05/27 05:39:29;;;;;;;9.73;7.45;;;;;;;23.24;65.64;97322.00;5040152;28;20057;-60
2022/05/27 05:42:04;;;;;;;9.70;7.40;;;;;;;22.92;62.70;97268.44;5023789;28;20057;-62
2022/05/27 05:44:31;;;;;;;8.13;6.57;;;;;;;23.32;61.78;97295.16;5024989;28;20065;-63
2022/05/27 05:46:58;;;;;;;9.05;7.05;;;;;;;23.63;59.18;97325.31;5024744;28;20057;-63
2022/05/27 05:49:25;;;;;;;9.55;6.18;;;;;;;23.84;58.11;97315.38;5024865;28;20053;-64
2022/05/27 05:51:54;;;;;;;6.97;6.10;;;;;;;23.76;57.55;97302.69;5023449;28;20830;-61
2022/05/27 05:54:23;;;;;;;8.48;6.85;;;;;;;23.39;60.20;97249.72;5039049;28;20061;-61
2022/05/27 05:56:50;;;;;;;14.75;6.97;;;;;;;23.59;59.11;97258.78;5008579;28;20057;-64
2022/05/27 05:59:18;;;;;;;7.82;7.05;;;;;;;24.05;58.50;97320.41;5003027;28;20521;-62
2022/05/27 06:01:45;;;;;;;10.35;7.57;;;;;;;24.14;58.67;97323.34;5007373;28;20057;-60
2022/05/27 06:04:12;;;;;;;8.55;6.80;;;;;;;24.23;57.83;97332.00;5003997;28;20046;-67
2022/05/27 06:06:40;;;;;;;7.95;6.32;;;;;;;23.90;56.22;97303.06;5004483;28;20132;-64
2022/05/27 06:09:07;;;;;;;6.85;6.07;;;;;;;23.63;60.15;97341.50;5004062;28;20064;-65
2022/05/27 06:11:36;;;;;;;7.65;6.80;;;;;;;23.59;61.82;97281.41;5004534;28;20425;-62
2022/05/27 06:14:05;;;;;;;9.65;6.20;;;;;;;24.23;61.63;97326.31;5004524;28;20473;-60
2022/05/27 06:16:32;;;;;;;7.00;6.22;;;;;;;24.08;58.91;97262.91;5001806;28;20049;-64
2022/05/27 06:18:59;;;;;;;8.95;6.00;;;;;;;24.23;56.90;97249.88;4991884;28;20050;-59
2022/05/27 06:21:27;;;;;;;6.72;6.00;;;;;;;24.91;56.17;97317.94;4983532;28;20448;-60
2022/05/27 06:23:54;;;;;;;6.28;5.68;;;;;;;24.43;57.07;97244.72;4988064;28;20042;-64
2022/05/27 06:26:21;;;;;;;6.05;5.55;;;;;;;24.87;56.94;97331.44;4993473;28;20096;-58
2022/05/27 06:34:26;;;;;;;6.85;6.20;;;;;;;23.53;59.84;97317.97;4984707;28;20050;-58
2022/05/27 06:37:18;;;;;;;6.40;5.78;;;;;;;22.97;64.87;97319.53;4983680;28;20050;-58
2022/05/27 06:39:45;;;;;;;8.20;5.93;;;;;;;22.97;65.97;97324.41;4980165;28;20061;-58
2022/05/27 06:42:14;;;;;;;11.18;6.28;;;;;;;23.61;63.55;97318.53;4981080;28;20569;-59
2022/05/27 06:45:01;;;;;;;11.32;5.88;;;;;;;23.89;61.79;97318.47;4983363;28;20054;-65
2022/05/27 06:47:28;;;;;;;7.50;5.93;;;;;;;23.91;59.61;97275.56;4981449;28;20062;-66
2022/05/27 06:49:55;;;;;;;6.05;5.55;;;;;;;23.66;59.52;97306.66;4984425;28;20049;-65
2022/05/27 06:52:24;;;;;;;6.63;5.85;;;;;;;23.74;60.69;97322.19;4983413;28;20058;-58
2022/05/27 06:54:52;;;;;;;7.75;7.05;;;;;;;23.34;62.19;97247.44;4996633;28;20274;-58
2022/05/27 06:57:19;;;;;;;13.43;9.38;;;;;;;23.71;59.93;97311.78;4983072;28;20089;-64
2022/05/27 06:59:46;;;;;;;9.40;7.68;;;;;;;23.12;60.96;97212.53;4983459;28;20054;-74
2022/05/27 07:02:13;;;;;;;7.95;6.35;;;;;;;24.25;58.62;97318.16;4983547;28;20105;-63
2022/05/27 07:04:40;;;;;;;10.95;6.45;;;;;;;23.76;57.65;97299.88;4982157;28;20128;-61
2022/05/27 07:07:07;;;;;;;12.35;10.07;;;;;;;23.83;60.53;97313.81;4978646;28;20054;-68
2022/05/27 07:09:37;;;;;;;6.82;6.32;;;;;;;24.26;57.63;97302.75;4980848;28;20046;-64
2022/05/27 07:12:06;;;;;;;9.45;7.63;;;;;;;24.10;56.01;97305.72;4976519;28;20055;-59
2022/05/27 07:14:34;;;;;;;6.28;5.10;;;;;;;23.83;53.68;97305.31;4983200;28;20524;-60
2022/05/27 07:17:00;;;;;;;6.65;5.88;;;;;;;23.91;54.85;97269.91;4975691;28;20509;-68
2022/05/27 07:19:39;;;;;;;7.30;6.53;;;;;;;24.46;53.45;97282.66;4977097;28;20057;-60
2022/05/27 07:22:10;;;;;;;10.60;9.18;;;;;;;25.26;50.11;97293.97;4980062;28;20053;-63
2022/05/27 07:24:39;;;;;;;11.68;10.35;;;;;;;24.92;50.38;97223.16;4986508;28;20121;-65
2022/05/27 07:27:06;;;;;;;6.22;5.63;;;;;;;25.22;48.81;97290.50;4998467;28;20058;-60
2022/05/27 07:29:33;;;;;;;7.18;6.50;;;;;;;24.67;48.64;97237.44;4983611;28;20054;-65
2022/05/27 07:32:00;;;;;;;6.65;6.03;;;;;;;25.45;47.64;97288.47;4974744;28;20066;-60
2022/05/27 07:34:27;;;;;;;9.05;5.72;;;;;;;26.02;46.01;97294.34;4979870;28;20058;-63
2022/05/27 07:36:54;;;;;;;6.03;5.53;;;;;;;26.07;42.60;97264.53;4982883;28;20046;-63
2022/05/27 07:39:21;;;;;;;5.85;5.45;;;;;;;26.12;43.27;97284.63;4982188;28;20054;-64
2022/05/27 07:41:47;;;;;;;5.90;5.50;;;;;;;26.60;43.04;97268.81;4983777;28;20046;-65
2022/05/27 07:44:15;;;;;;;6.00;5.60;;;;;;;26.77;42.85;97240.91;4995986;28;20665;-63
2022/05/27 07:46:42;;;;;;;6.13;5.63;;;;;;;27.15;40.94;97256.25;4975015;28;20061;-59
2022/05/27 07:49:09;;;;;;;5.93;5.53;;;;;;;26.46;39.17;97275.09;4979900;28;20054;-59
2022/05/27 07:51:56;;;;;;;5.70;5.30;;;;;;;26.00;40.78;97247.81;4983437;28;20066;-58
2022/05/27 07:54:22;;;;;;;4.68;4.47;;;;;;;25.71;41.73;97270.81;4981090;28;20531;-59
2022/05/27 07:56:49;;;;;;;5.10;4.80;;;;;;;26.36;41.61;97270.66;4973195;28;20126;-60
2022/05/27 07:59:16;;;;;;;5.82;5.10;;;;;;;26.25;41.25;97253.25;4983163;28;20058;-60
2022/05/27 08:01:42;;;;;;;6.53;5.85;;;;;;;26.26;41.71;97237.78;4976106;28;20051;-65
2022/05/27 08:04:09;;;;;;;5.68;5.30;;;;;;;26.23;39.58;97278.50;4979719;28;20062;-61
2022/05/27 08:06:36;;;;;;;5.38;5.07;;;;;;;26.23;39.33;97279.28;4990474;28;20047;-59
2022/05/27 08:09:12;;;;;;;5.40;4.93;;;;;;;26.72;39.10;97267.91;4980906;28;20082;-64
2022/05/27 08:11:38;;;;;;;5.60;5.30;;;;;;;27.15;38.17;97264.78;4972981;28;20426;-64
2022/05/27 08:14:06;;;;;;;8.15;5.65;;;;;;;27.49;38.60;97272.97;4987090;28;20058;-57
2022/05/27 08:16:34;;;;;;;6.22;5.50;;;;;;;27.75;37.71;97262.81;4983803;28;20050;-57
2022/05/27 08:19:02;;;;;;;5.03;4.63;;;;;;;28.15;37.43;97263.31;4998728;28;20066;-65
2022/05/27 08:21:29;;;;;;;5.22;4.93;;;;;;;28.29;36.53;97252.47;4978860;28;20540;-65
2022/05/27 08:23:55;;;;;;;5.90;5.55;;;;;;;27.71;37.70;97199.53;4985786;28;20050;-57
2022/05/27 08:26:22;;;;;;;5.90;5.45;;;;;;;27.64;38.03;97214.13;4979834;28;20425;-66
2022/05/27 08:28:49;;;;;;;6.82;5.20;;;;;;;28.10;36.66;97215.56;4984234;28;20602;-59
2022/05/27 08:31:16;;;;;;;5.85;5.45;;;;;;;28.09;36.99;97245.28;4980367;28;20383;-59
2022/05/27 08:39:14;;;;;;;6.25;5.72;;;;;;;27.30;38.20;97242.97;4981212;28;20054;-57
2022/05/27 08:42:09;;;;;;;6.95;6.43;;;;;;;27.78;37.10;97239.06;4978735;28;20547;-64
2022/05/27 08:45:02;;;;;;;6.13;5.13;;;;;;;28.11;37.77;97241.97;4984426;28;20421;-58
2022/05/27 08:47:35;;;;;;;7.00;6.32;;;;;;;27.95;37.53;97236.66;4978095;28;20057;-56
2022/05/27 08:50:10;;;;;;;5.80;5.30;;;;;;;27.98;37.10;97242.19;4984313;28;20082;-62
2022/05/27 08:52:50;;;;;;;6.05;5.57;;;;;;;27.31;37.97;97159.19;4995669;28;20062;-59
2022/05/27 09:01:12;;;;;;;6.85;6.05;;;;;;;28.78;36.88;97230.03;4980217;28;20065;-59
2022/05/27 09:03:45;;;;;;;7.57;6.18;;;;;;;28.99;36.55;97217.50;4983264;28;20082;-56
2022/05/27 09:06:14;;;;;;;6.00;5.50;;;;;;;29.30;35.99;97203.59;4983383;28;20054;-63
2022/05/27 09:08:41;;;;;;;6.60;6.10;;;;;;;29.54;34.76;97181.47;4979332;28;20562;-62
2022/05/27 09:11:26;;;;;;;6.95;6.38;;;;;;;29.15;35.34;97291.28;4982219;28;20050;-60
2022/05/27 09:14:19;;;;;;;6.00;5.70;;;;;;;29.64;35.55;97205.78;4984711;28;20055;-61
2022/05/27 09:17:07;;;;;;;6.13;5.82;;;;;;;29.51;34.32;97122.50;4981668;28;20460;-61
2022/05/27 09:20:02;;;;;;;6.28;5.72;;;;;;;29.36;34.65;97102.53;4984655;28;20050;-63
2022/05/27 09:23:06;;;;;;;7.00;6.40;;;;;;;30.14;35.65;97193.13;4978827;28;20870;-60
2022/05/27 09:25:44;;;;;;;7.30;6.55;;;;;;;30.34;34.66;97190.31;4981831;28;20058;-64
2022/05/27 09:28:34;;;;;;;6.10;5.70;;;;;;;30.55;34.63;97194.78;4981364;28;20058;-65
2022/05/27 09:31:05;;;;;;;6.85;6.20;;;;;;;30.66;34.61;97182.69;4985805;28;20058;-58
2022/05/27 09:33:33;;;;;;;5.72;5.32;;;;;;;30.38;33.40;97179.44;4986092;28;20054;-58
2022/05/27 09:36:14;;;;;;;6.38;5.88;;;;;;;30.45;33.82;97190.47;4985813;28;20058;-63
2022/05/27 09:38:52;;;;;;;12.63;11.15;;;;;;;30.10;35.08;97181.09;4984239;28;20445;-60
2022/05/27 09:41:43;;;;;;;9.57;6.78;;;;;;;30.67;34.68;97176.47;4983088;28;20588;-61
2022/05/27 09:44:19;;;;;;;6.35;5.95;;;;;;;30.21;33.45;97095.53;4984777;28;20536;-65
2022/05/27 09:46:46;;;;;;;6.68;6.30;;;;;;;30.65;33.65;97147.56;4977775;28;20066;-64
2022/05/27 09:49:13;;;;;;;7.40;6.80;;;;;;;30.72;32.72;97170.03;4999604;28;20538;-63
2022/05/27 09:51:40;;;;;;;7.13;6.40;;;;;;;30.36;32.99;97119.13;4981482;28;20441;-62
2022/05/27 09:54:31;;;;;;;8.02;7.20;;;;;;;30.61;32.54;97158.44;4988942;28;20441;-61
2022/05/27 09:57:09;;;;;;;7.82;7.28;;;;;;;30.18;33.16;97159.38;4976192;28;20520;-69
2022/05/27 09:59:48;;;;;;;5.93;5.53;;;;;;;30.14;33.63;97163.75;4984148;28;20046;-65
2022/05/27 10:02:31;;;;;;;6.05;5.70;;;;;;;30.35;32.91;97163.28;4980753;28;20054;-62
2022/05/27 10:05:05;;;;;;;;;;;;;;;30.32;32.35;97161.44;4985474;28;20160;-63
2022/05/27 10:07:40;;;;;;;5.78;5.43;;;;;;;30.29;32.91;97168.16;4981296;28;19936;-60
2022/05/27 10:10:22;;;;;;;6.63;6.07;;;;;;;30.09;33.71;97153.81;4985360;28;20058;-64
2022/05/27 10:14:19;;;;;;;6.25;5.72;;;;;;;30.33;33.32;97154.44;5083922;27;20385;-70
2022/05/27 10:17:10;;;;;;;6.25;5.63;;;;;;;30.48;32.98;97143.72;5082525;28;20106;-65
2022/05/27 10:19:47;;;;;;;6.53;5.95;;;;;;;30.48;33.19;97140.84;5073815;28;20645;-60
2022/05/27 10:22:23;;;;;;;8.30;7.55;;;;;;;29.85;34.00;97153.19;5072323;28;20586;-61
2022/05/27 10:25:04;;;;;;;6.32;5.78;;;;;;;29.82;34.92;97148.47;5074783;28;20054;-61
2022/05/27 10:27:52;;;;;;;7.70;7.10;;;;;;;30.05;33.69;97130.34;5077489;28;20079;-66
2022/05/27 10:30:24;;;;;;;6.32;5.85;;;;;;;30.51;33.69;97141.91;5075397;28;20624;-59
2022/05/27 10:32:52;;;;;;;7.30;6.45;;;;;;;30.39;33.85;97095.25;5073743;28;21142;-59
2022/05/27 10:35:29;;;;;;;6.35;5.88;;;;;;;30.04;33.96;97130.84;5086454;28;20058;-58
2022/05/27 10:38:19;;;;;;;5.95;5.55;;;;;;;30.64;33.12;97125.97;5064520;28;20088;-60
2022/05/27 10:40:57;;;;;;;6.30;5.90;;;;;;;30.67;33.12;97122.13;5071627;28;20143;-60
2022/05/27 10:43:42;;;;;;;6.88;6.43;;;;;;;30.64;33.14;97085.94;5071729;28;20044;-70
2022/05/27 10:46:15;;;;;;;6.40;5.78;;;;;;;31.12;32.75;97122.63;5063547;28;20052;-66
2022/05/27 10:49:01;;;;;;;7.88;6.00;;;;;;;31.20;32.60;97118.03;5084577;28;20060;-65
2022/05/27 10:51:38;;;;;;;6.88;6.25;;;;;;;31.21;32.68;97108.94;5086836;28;20127;-66
2022/05/27 10:54:26;;;;;;;7.18;6.38;;;;;;;31.22;32.68;97109.72;5094657;28;20044;-67
2022/05/27 11:03:19;;;;;;;7.13;6.55;;;;;;;31.47;33.44;97094.63;5059760;28;20099;-61
2022/05/27 11:05:55;;;;;;;7.32;6.25;;;;;;;30.53;34.02;97094.38;5065526;28;20527;-66
2022/05/27 11:08:28;;;;;;;9.48;5.90;;;;;;;30.41;33.88;97092.69;5078124;28;20136;-65
2022/05/27 11:11:31;;;;;;;6.55;5.95;;;;;;;30.66;34.06;97089.09;5079540;28;20443;-57
2022/05/27 11:17:15;;;;;;;12.48;9.07;;;;;;;31.52;32.04;97088.16;5082889;28;20052;-66
2022/05/27 11:19:54;;;;;;;8.35;7.63;;;;;;;31.32;31.91;97085.34;5086788;28;20052;-65
2022/05/27 11:22:41;;;;;;;11.65;9.38;;;;;;;31.23;32.50;97071.19;5086354;28;20173;-66
2022/05/27 11:25:27;;;;;;;8.77;6.97;;;;;;;31.17;32.91;97073.22;5074424;28;20059;-68
2022/05/27 11:28:11;;;;;;;9.43;7.30;;;;;;;31.51;31.67;97063.63;5057135;28;20134;-65
2022/05/27 11:31:18;;;;;;;6.30;5.72;;;;;;;31.77;31.30;97058.63;5068017;28;20056;-66
2022/05/27 11:33:55;;;;;;;7.70;6.15;;;;;;;31.23;31.32;97063.41;5078638;28;20434;-61
2022/05/27 11:36:34;;;;;;;6.00;5.70;;;;;;;31.17;32.00;97061.78;5055321;28;20138;-62
2022/05/27 11:39:29;;;;;;;7.32;6.25;;;;;;;30.83;31.35;97023.47;5050839;28;20045;-63
2022/05/27 11:42:20;;;;;;;6.53;6.22;;;;;;;30.89;32.21;97053.72;5064445;28;20053;-63
2022/05/27 11:45:21;;;;;;;5.65;5.35;;;;;;;31.04;32.22;97002.09;5080649;28;20056;-70
2022/05/27 11:47:57;;;;;;;7.10;6.47;;;;;;;31.88;31.71;97059.53;5071306;28;20561;-62
2022/05/27 11:51:07;;;;;;;6.80;6.47;;;;;;;31.89;32.17;97054.56;5065163;28;20085;-64
2022/05/27 11:53:55;;;;;;;5.97;5.57;;;;;;;32.30;31.07;97050.06;5060448;28;20052;-60
2022/05/27 11:56:27;;;;;;;5.68;5.28;;;;;;;32.49;30.74;97045.47;5064784;28;20048;-63
2022/05/27 11:59:08;;;;;;;5.97;5.47;;;;;;;32.57;30.39;97020.72;5071662;28;20093;-61
2022/05/27 12:01:49;;;;;;;5.53;5.22;;;;;;;32.96;30.11;97067.53;5078108;28;20051;-62
2022/05/27 12:04:41;;;;;;;7.25;6.75;;;;;;;33.06;31.03;97042.25;5065326;28;20536;-57
2022/05/27 12:07:29;;;;;;;7.15;6.55;;;;;;;33.26;29.64;97034.16;5073467;28;20048;-59
2022/05/27 12:10:17;;;;;;;6.63;6.22;;;;;;;32.95;29.93;97031.53;5077112;28;20060;-60
2022/05/27 12:12:49;;;;;;;7.50;7.00;;;;;;;32.70;30.58;96998.06;5075099;28;20636;-63
2022/05/27 12:15:27;;;;;;;6.65;6.03;;;;;;;32.54;29.98;96967.25;5077997;28;20556;-57
2022/05/27 12:17:56;;;;;;;6.20;5.90;;;;;;;32.75;30.89;97016.59;5084054;28;20078;-61
2022/05/27 12:20:30;;;;;;;6.68;6.18;;;;;;;32.26;30.33;96986.47;5067349;28;20055;-62
2022/05/27 12:23:00;;;;;;;6.93;6.45;;;;;;;32.71;30.74;97033.28;4986571;28;20058;-67
2022/05/27 12:25:31;;;;;;;7.43;6.88;;;;;;;32.87;30.91;97007.47;4986605;28;20064;-65
2022/05/27 12:28:00;;;;;;;6.40;6.05;;;;;;;32.56;30.12;97024.13;4986246;28;20492;-64
2022/05/27 12:30:39;;;;;;;6.18;5.72;;;;;;;30.01;33.03;96941.19;4992957;28;20452;-60
2022/05/27 12:33:11;;;;;;;6.13;5.72;;;;;;;31.01;31.82;96993.72;4989409;28;20062;-58
2022/05/27 12:35:39;;;;;;;6.25;5.75;;;;;;;31.07;31.80;97014.59;5008148;28;20059;-62